createdAt,value
2017-06-04T06:51:16.244Z,1008.83
2017-06-04T06:51:56.782Z,1008.83
2017-06-04T06:52:37.323Z,1008.83
2017-06-04T06:53:17.865Z,1008.86
2017-06-04T06:53:58.413Z,1008.85
2017-06-04T06:54:38.948Z,1008.85
2017-06-04T06:55:19.483Z,1008.86
2017-06-04T06:56:00.017Z,1008.88
2017-06-04T06:56:40.553Z,1008.86
2017-06-04T06:57:21.090Z,1008.88
2017-06-04T06:58:01.618Z,1008.88
2017-06-04T06:58:42.176Z,1008.82
2017-06-04T06:59:22.704Z,1008.85
2017-06-04T07:00:03.246Z,1008.87
2017-06-04T07:00:43.792Z,1008.86
2017-06-04T07:01:24.332Z,1008.84
2017-06-04T07:02:04.870Z,1008.86
2017-06-04T07:02:45.408Z,1008.85
2017-06-04T07:03:25.943Z,1008.89
2017-06-04T07:04:06.479Z,1008.86
2017-06-04T07:04:47.022Z,1008.88
2017-06-04T07:05:27.564Z,1008.89
2017-06-04T07:06:08.106Z,1008.91
2017-06-04T07:06:48.657Z,1008.9
2017-06-04T07:07:29.203Z,1008.92
2017-06-04T07:08:09.739Z,1008.88
2017-06-04T07:08:50.280Z,1008.91
2017-06-04T07:09:30.828Z,1008.91
2017-06-04T07:10:11.375Z,1008.91
2017-06-04T07:10:51.901Z,1008.92
2017-06-04T07:11:32.421Z,1008.91
2017-06-04T07:12:12.961Z,1008.96
2017-06-04T07:12:53.497Z,1008.98
2017-06-04T07:13:34.034Z,1009.01
2017-06-04T07:14:14.570Z,1009
2017-06-04T07:14:55.102Z,1009
2017-06-04T07:15:35.634Z,1009.01
2017-06-04T07:16:16.177Z,1009.02
2017-06-04T07:16:56.715Z,1009.03
2017-06-04T07:17:37.254Z,1009.02
2017-06-04T07:18:17.796Z,1009.08
2017-06-04T07:18:58.330Z,1009.02
2017-06-04T07:19:38.871Z,1009.02
2017-06-04T07:20:19.413Z,1009.03
2017-06-04T07:20:59.946Z,1008.98
2017-06-04T07:21:40.492Z,1008.96
2017-06-04T07:22:21.024Z,1009.03
2017-06-04T07:23:01.562Z,1008.97
2017-06-04T07:23:42.102Z,1009
2017-06-04T07:24:22.639Z,1008.95
2017-06-04T07:25:03.171Z,1008.97
2017-06-04T07:25:43.722Z,1008.99
2017-06-04T07:26:24.249Z,1008.97
2017-06-04T07:27:04.794Z,1009.04
2017-06-04T07:27:45.344Z,1008.97
2017-06-04T07:28:25.883Z,1008.97
2017-06-04T07:29:06.430Z,1008.98
2017-06-04T07:29:46.982Z,1008.93
2017-06-04T07:30:27.526Z,1008.95
2017-06-04T07:31:08.071Z,1009
2017-06-04T07:31:48.620Z,1009.02
2017-06-04T07:32:29.164Z,1009
2017-06-04T07:33:09.700Z,1009.03
2017-06-04T07:33:50.233Z,1008.98
2017-06-04T07:34:30.752Z,1008.96
2017-06-04T07:35:11.295Z,1008.99
2017-06-04T07:35:51.830Z,1009.03
2017-06-04T07:36:32.377Z,1009.04
2017-06-04T07:37:12.905Z,1009.04
2017-06-04T07:37:53.453Z,1009.01
2017-06-04T07:38:34.000Z,1009.03
2017-06-04T07:39:14.536Z,1009.04
2017-06-04T07:39:55.075Z,1009.07
2017-06-04T07:40:35.610Z,1009.07
2017-06-04T07:41:16.132Z,1009.09
2017-06-04T07:41:56.679Z,1009.06
2017-06-04T07:42:37.227Z,1009.07
2017-06-04T07:43:17.772Z,1009.08
2017-06-04T07:43:58.315Z,1009.1
2017-06-04T07:44:38.852Z,1009.07
2017-06-04T07:45:19.380Z,1009.07
2017-06-04T07:45:59.931Z,1009.08
2017-06-04T07:46:40.456Z,1009.16
2017-06-04T07:47:21.003Z,1009.13
2017-06-04T07:48:01.553Z,1009.11
2017-06-04T07:48:42.103Z,1009.12
2017-06-04T07:49:22.639Z,1009.11
2017-06-04T07:50:03.196Z,1009.11
2017-06-04T07:50:43.744Z,1009.11
2017-06-04T07:51:24.296Z,1009.13
2017-06-04T07:52:04.832Z,1009.13
2017-06-04T07:52:45.369Z,1009.16
2017-06-04T07:53:25.897Z,1009.15
2017-06-04T07:54:06.438Z,1009.17
2017-06-04T07:54:46.993Z,1009.15
2017-06-04T07:55:27.545Z,1009.19
2017-06-04T07:56:08.076Z,1009.15
2017-06-04T07:56:48.613Z,1009.15
2017-06-04T07:57:29.154Z,1009.14
2017-06-04T07:58:09.693Z,1009.13
2017-06-04T07:58:50.220Z,1009.14
2017-06-04T07:59:30.751Z,1009.16
2017-06-04T08:00:11.284Z,1009.14
2017-06-04T08:00:51.814Z,1009.16
2017-06-04T08:01:32.352Z,1009.19
2017-06-04T08:02:12.909Z,1009.22
2017-06-04T08:02:53.449Z,1009.21
2017-06-04T08:03:33.993Z,1009.18
2017-06-04T08:04:14.532Z,1009.22
2017-06-04T08:04:55.069Z,1009.19
2017-06-04T08:05:35.626Z,1009.21
2017-06-04T08:06:16.135Z,1009.22
2017-06-04T08:06:56.683Z,1009.22
2017-06-04T08:07:37.206Z,1009.24
2017-06-04T08:08:17.751Z,1009.21
2017-06-04T08:08:58.279Z,1009.27
2017-06-04T08:09:38.807Z,1009.29
2017-06-04T08:10:19.333Z,1009.24
2017-06-04T08:10:59.871Z,1009.28
2017-06-04T08:11:40.412Z,1009.25
2017-06-04T08:12:20.967Z,1009.28
2017-06-04T08:13:01.501Z,1009.25
2017-06-04T08:13:42.049Z,1009.26
2017-06-04T08:14:22.586Z,1009.28
2017-06-04T08:15:03.130Z,1009.28
2017-06-04T08:15:43.662Z,1009.32
2017-06-04T08:16:24.191Z,1009.38
2017-06-04T08:17:04.732Z,1009.3
2017-06-04T08:17:45.294Z,1009.32
2017-06-04T08:18:25.837Z,1009.31
2017-06-04T08:19:06.375Z,1009.3
2017-06-04T08:19:46.927Z,1009.45
2017-06-04T08:20:27.474Z,1009.36
2017-06-04T08:21:08.021Z,1009.37
2017-06-04T08:21:48.569Z,1009.34
2017-06-04T08:22:29.132Z,1009.39
2017-06-04T08:23:09.678Z,1009.38
2017-06-04T08:23:50.258Z,1009.41
2017-06-04T08:24:30.748Z,1009.41
2017-06-04T08:25:11.289Z,1009.45
2017-06-04T08:25:51.818Z,1009.45
2017-06-04T08:26:32.354Z,1009.46
2017-06-04T08:27:12.878Z,1009.49
2017-06-04T08:27:53.416Z,1009.52
2017-06-04T08:28:33.960Z,1009.46
2017-06-04T08:29:14.500Z,1009.46
2017-06-04T08:29:55.039Z,1009.48
2017-06-04T08:30:35.575Z,1009.47
2017-06-04T08:31:16.105Z,1009.49
2017-06-04T08:31:56.641Z,1009.43
2017-06-04T08:32:37.172Z,1009.42
2017-06-04T08:33:17.716Z,1009.45
2017-06-04T08:33:58.243Z,1009.52
2017-06-04T08:34:38.780Z,1009.51
2017-06-04T08:35:19.321Z,1009.47
2017-06-04T08:35:59.858Z,1009.47
2017-06-04T08:36:40.404Z,1009.45
2017-06-04T08:37:20.943Z,1009.54
2017-06-04T08:38:01.492Z,1009.58
2017-06-04T08:38:42.035Z,1009.53
2017-06-04T08:39:22.581Z,1009.53
2017-06-04T08:40:03.125Z,1009.53
2017-06-04T08:40:43.676Z,1009.59
2017-06-04T08:41:24.221Z,1009.56
2017-06-04T08:42:04.754Z,1009.58
2017-06-04T08:42:45.292Z,1009.52
2017-06-04T08:43:25.818Z,1009.54
2017-06-04T08:44:06.349Z,1009.58
2017-06-04T08:44:46.900Z,1009.58
2017-06-04T08:45:27.440Z,1009.6
2017-06-04T08:46:07.981Z,1009.61
2017-06-04T08:46:48.516Z,1009.62
2017-06-04T08:47:29.047Z,1009.57
2017-06-04T08:48:09.592Z,1009.67
2017-06-04T08:48:50.140Z,1009.63
2017-06-04T08:49:30.672Z,1009.69
2017-06-04T08:50:11.223Z,1009.62
2017-06-04T08:50:51.761Z,1009.67
2017-06-04T08:51:32.307Z,1009.64
2017-06-04T08:52:12.852Z,1009.63
2017-06-04T08:52:53.404Z,1009.65
2017-06-04T08:53:33.934Z,1009.59
2017-06-04T08:54:14.486Z,1009.71
2017-06-04T08:54:55.029Z,1009.65
2017-06-04T08:55:35.584Z,1009.63
2017-06-04T08:56:16.126Z,1009.6
2017-06-04T08:56:56.691Z,1009.64
2017-06-04T08:57:37.243Z,1009.64
2017-06-04T08:58:17.782Z,1009.65
2017-06-04T08:58:58.342Z,1009.68
2017-06-04T08:59:38.874Z,1009.64
2017-06-04T09:00:19.529Z,1009.65
2017-06-04T09:01:00.715Z,1009.65
2017-06-04T09:01:41.266Z,1009.64
2017-06-04T09:02:21.811Z,1009.71
2017-06-04T09:03:02.357Z,1009.68
2017-06-04T09:03:42.890Z,1009.61
2017-06-04T09:04:23.426Z,1009.7
2017-06-04T09:05:03.947Z,1009.72
2017-06-04T09:05:44.580Z,1009.71
2017-06-04T09:06:25.129Z,1009.75
2017-06-04T09:07:05.673Z,1009.79
2017-06-04T09:07:46.201Z,1009.76
2017-06-04T09:08:26.731Z,1009.79
2017-06-04T09:09:07.278Z,1009.76
2017-06-04T09:09:47.815Z,1009.78
2017-06-04T09:10:28.347Z,1009.79
2017-06-04T09:11:08.899Z,1009.81
2017-06-04T09:11:49.423Z,1009.85
2017-06-04T09:12:29.957Z,1009.81
2017-06-04T09:13:10.505Z,1009.73
2017-06-04T09:13:51.100Z,1009.78
2017-06-04T09:14:31.637Z,1009.82
2017-06-04T09:15:12.157Z,1009.78
2017-06-04T09:15:52.691Z,1009.81
2017-06-04T09:16:33.229Z,1009.77
2017-06-04T09:17:13.770Z,1009.72
2017-06-04T09:17:54.312Z,1009.72
2017-06-04T09:18:34.864Z,1009.76
2017-06-04T09:19:15.428Z,1009.74
2017-06-04T09:19:55.974Z,1009.75
2017-06-04T09:20:36.508Z,1009.85
2017-06-04T09:21:17.060Z,1009.72
2017-06-04T09:21:57.595Z,1009.76
2017-06-04T09:22:38.132Z,1009.8
2017-06-04T09:23:18.666Z,1009.8
2017-06-04T09:23:59.199Z,1009.81
2017-06-04T09:24:39.731Z,1009.78
2017-06-04T09:25:20.279Z,1009.83
2017-06-04T09:26:00.808Z,1009.75
2017-06-04T09:26:41.360Z,1009.78
2017-06-04T09:27:21.901Z,1009.81
2017-06-04T09:28:02.440Z,1009.78
2017-06-04T09:28:42.965Z,1009.8
2017-06-04T09:29:23.510Z,1009.83
2017-06-04T09:30:04.066Z,1009.94
2017-06-04T09:30:44.605Z,1009.9
2017-06-04T09:31:25.156Z,1009.91
2017-06-04T09:32:05.696Z,1009.92
2017-06-04T09:32:46.230Z,1009.85
2017-06-04T09:33:26.765Z,1009.88
2017-06-04T09:34:07.310Z,1009.82
2017-06-04T09:34:47.848Z,1009.78
2017-06-04T09:35:28.383Z,1009.83
2017-06-04T09:36:08.914Z,1009.84
2017-06-04T09:36:49.449Z,1009.81
2017-06-04T09:37:29.987Z,1009.98
2017-06-04T09:38:10.520Z,1009.9
2017-06-04T09:38:51.076Z,1009.86
2017-06-04T09:39:31.598Z,1009.88
2017-06-04T09:40:12.139Z,1009.9
2017-06-04T09:40:52.688Z,1009.89
2017-06-04T09:41:33.225Z,1009.92
2017-06-04T09:42:13.778Z,1009.9
2017-06-04T09:42:54.313Z,1009.92
2017-06-04T09:43:34.846Z,1009.88
2017-06-04T09:44:15.390Z,1009.91
2017-06-04T09:44:55.948Z,1009.92
2017-06-04T09:45:36.479Z,1009.96
2017-06-04T09:46:17.033Z,1009.98
2017-06-04T09:46:57.578Z,1009.98
2017-06-04T09:47:38.076Z,1009.92
2017-06-04T09:48:18.617Z,1009.93
2017-06-04T09:48:59.155Z,1009.96
2017-06-04T09:49:39.693Z,1009.95
2017-06-04T09:50:20.234Z,1009.94
2017-06-04T09:51:00.773Z,1009.97
2017-06-04T09:51:41.322Z,1009.94
2017-06-04T09:52:21.851Z,1009.91
2017-06-04T09:53:02.381Z,1009.99
2017-06-04T09:53:42.909Z,1009.97
2017-06-04T09:54:23.476Z,1009.99
2017-06-04T09:55:04.019Z,1009.98
2017-06-04T09:55:44.564Z,1009.95
2017-06-04T09:56:25.103Z,1010.03
2017-06-04T09:57:05.646Z,1010.01
2017-06-04T09:57:46.193Z,1009.93
2017-06-04T09:58:26.741Z,1009.95
2017-06-04T09:59:07.292Z,1009.98
2017-06-04T09:59:47.856Z,1010.01
2017-06-04T10:00:28.375Z,1009.95
2017-06-04T10:01:08.915Z,1010.06
2017-06-04T10:01:49.441Z,1010.09
2017-06-04T10:02:29.987Z,1010.13
2017-06-04T10:03:10.534Z,1010.09
2017-06-04T10:03:51.103Z,1010.11
2017-06-04T10:04:31.652Z,1010.06
2017-06-04T10:05:12.199Z,1010.14
2017-06-04T10:05:52.731Z,1010.12
2017-06-04T10:06:33.280Z,1010.1
2017-06-04T10:07:13.823Z,1010.09
2017-06-04T10:07:54.371Z,1010.18
2017-06-04T10:08:34.917Z,1010.06
2017-06-04T10:09:15.461Z,1010.1
2017-06-04T10:09:56.013Z,1010.06
2017-06-04T10:10:36.562Z,1010
2017-06-04T10:11:17.103Z,1009.98
2017-06-04T10:11:57.656Z,1010.06
2017-06-04T10:12:38.187Z,1010.03
2017-06-04T10:13:18.735Z,1010.04
2017-06-04T10:13:59.286Z,1010.05
2017-06-04T10:14:39.847Z,1010.07
2017-06-04T10:15:20.388Z,1010.1
2017-06-04T10:16:00.940Z,1010.12
2017-06-04T10:16:41.489Z,1010.13
2017-06-04T10:17:22.042Z,1010.13
2017-06-04T10:18:02.594Z,1010.14
2017-06-04T10:18:43.140Z,1010.19
2017-06-04T10:19:23.688Z,1010.16
2017-06-04T10:20:04.237Z,1010.1
2017-06-04T10:20:44.760Z,1010.15
2017-06-04T10:21:25.302Z,1010.16
2017-06-04T10:22:05.844Z,1010.05
2017-06-04T10:22:46.404Z,1010.11
2017-06-04T10:23:26.954Z,1010.18
2017-06-04T10:24:07.506Z,1010.2
2017-06-04T10:24:48.061Z,1010.14
2017-06-04T10:25:28.601Z,1010.19
2017-06-04T10:26:09.148Z,1010.21
2017-06-04T10:26:49.705Z,1010.24
2017-06-04T10:27:30.249Z,1010.24
2017-06-04T10:28:10.797Z,1010.23
2017-06-04T10:28:51.338Z,1010.1
2017-06-04T10:29:31.899Z,1010.26
2017-06-04T10:30:12.434Z,1010.24
2017-06-04T10:30:52.969Z,1010.17
2017-06-04T10:31:33.519Z,1010.15
2017-06-04T10:32:14.073Z,1010.24
2017-06-04T10:32:54.611Z,1010.24
2017-06-04T10:33:35.152Z,1010.2
2017-06-04T10:34:15.701Z,1010.16
2017-06-04T10:34:56.236Z,1010.17
2017-06-04T10:35:36.788Z,1010.22
2017-06-04T10:36:17.313Z,1010.21
2017-06-04T10:36:57.865Z,1010.15
2017-06-04T10:37:38.407Z,1010.26
2017-06-04T10:38:18.951Z,1010.26
2017-06-04T10:38:59.500Z,1010.28
2017-06-04T10:39:40.053Z,1010.3
2017-06-04T10:40:20.591Z,1010.27
2017-06-04T10:41:01.138Z,1010.26
2017-06-04T10:41:41.682Z,1010.27
2017-06-04T10:42:22.231Z,1010.35
2017-06-04T10:43:02.765Z,1010.47
2017-06-04T10:43:43.303Z,1010.38
2017-06-04T10:44:23.840Z,1010.38
2017-06-04T10:45:04.399Z,1010.39
2017-06-04T10:45:44.930Z,1010.33
2017-06-04T10:46:25.480Z,1010.37
2017-06-04T10:47:06.021Z,1010.32
2017-06-04T10:47:46.572Z,1010.3
2017-06-04T10:48:27.108Z,1010.25
2017-06-04T10:49:07.653Z,1010.31
2017-06-04T10:49:48.202Z,1010.18
2017-06-04T10:50:28.754Z,1010.28
2017-06-04T10:51:09.309Z,1010.27
2017-06-04T10:51:49.857Z,1010.2
2017-06-04T10:52:30.411Z,1010.15
2017-06-04T10:53:10.958Z,1010.29
2017-06-04T10:53:51.506Z,1010.26
2017-06-04T10:54:32.055Z,1010.28
2017-06-04T10:55:12.606Z,1010.3
2017-06-04T10:55:53.163Z,1010.29
2017-06-04T10:56:33.709Z,1010.27
2017-06-04T10:57:14.264Z,1010.28
2017-06-04T10:57:54.807Z,1010.31
2017-06-04T10:58:35.352Z,1010.22
2017-06-04T10:59:15.899Z,1010.33
2017-06-04T10:59:56.448Z,1010.31
2017-06-04T11:00:36.991Z,1010.3
2017-06-04T11:01:17.535Z,1010.29
2017-06-04T11:01:58.058Z,1010.34
2017-06-04T11:02:38.589Z,1010.31
2017-06-04T11:03:19.140Z,1010.29
2017-06-04T11:03:59.676Z,1010.3
2017-06-04T11:04:40.226Z,1010.3
2017-06-04T11:05:20.791Z,1010.2
2017-06-04T11:06:01.402Z,1010.34
2017-06-04T11:06:41.953Z,1010.36
2017-06-04T11:07:22.502Z,1010.32
2017-06-04T11:08:03.055Z,1010.29
2017-06-04T11:08:43.616Z,1010.31
2017-06-04T11:09:24.168Z,1010.43
2017-06-04T11:10:04.711Z,1010.4
2017-06-04T11:10:45.256Z,1010.41
2017-06-04T11:11:25.795Z,1010.39
2017-06-04T11:12:06.356Z,1010.36
2017-06-04T11:12:46.897Z,1010.36
2017-06-04T11:13:27.439Z,1010.37
2017-06-04T11:14:07.976Z,1010.33
2017-06-04T11:14:48.518Z,1010.32
2017-06-04T11:15:29.054Z,1010.25
2017-06-04T11:16:09.602Z,1010.25
2017-06-04T11:16:50.161Z,1010.34
2017-06-04T11:17:30.704Z,1010.29
2017-06-04T11:18:11.255Z,1010.22
2017-06-04T11:18:51.789Z,1010.19
2017-06-04T11:19:32.338Z,1010.21
2017-06-04T11:20:12.889Z,1010.25
2017-06-04T11:20:53.436Z,1010.31
2017-06-04T11:21:33.984Z,1010.33
2017-06-04T11:22:14.547Z,1010.41
2017-06-04T11:22:55.098Z,1010.38
2017-06-04T11:23:35.643Z,1010.31
2017-06-04T11:24:16.198Z,1010.33
2017-06-04T11:24:56.747Z,1010.32
2017-06-04T11:25:37.319Z,1010.28
2017-06-04T11:26:17.854Z,1010.32
2017-06-04T11:26:58.402Z,1010.29
2017-06-04T11:27:38.950Z,1010.3
2017-06-04T11:28:19.491Z,1010.3
2017-06-04T11:29:00.033Z,1010.35
2017-06-04T11:29:40.579Z,1010.3
2017-06-04T11:30:21.130Z,1010.33
2017-06-04T11:31:01.679Z,1010.37
2017-06-04T11:31:42.229Z,1010.27
2017-06-04T11:32:22.745Z,1010.25
2017-06-04T11:33:03.290Z,1010.19
2017-06-04T11:33:43.883Z,1010.29
2017-06-04T11:34:24.433Z,1010.18
2017-06-04T11:35:04.979Z,1010.31
2017-06-04T11:35:45.529Z,1010.15
2017-06-04T11:36:26.053Z,1010.16
2017-06-04T11:37:06.581Z,1010.13
2017-06-04T11:37:47.124Z,1010.24
2017-06-04T11:38:27.668Z,1010.19
2017-06-04T11:39:08.211Z,1010.3
2017-06-04T11:39:48.765Z,1010.19
2017-06-04T11:40:29.311Z,1010.19
2017-06-04T11:41:09.866Z,1010.13
2017-06-04T11:41:50.406Z,1010.07
2017-06-04T11:42:30.949Z,1010.05
2017-06-04T11:43:11.499Z,1010.05
2017-06-04T11:43:52.070Z,1010.05
2017-06-04T11:44:32.585Z,1010
2017-06-04T11:45:13.135Z,1009.98
2017-06-04T11:45:53.668Z,1010.03
2017-06-04T11:46:34.211Z,1010.09
2017-06-04T11:47:14.745Z,1010.05
2017-06-04T11:47:55.294Z,1010.05
2017-06-04T11:48:35.844Z,1010
2017-06-04T11:49:16.394Z,1010.01
2017-06-04T11:49:56.927Z,1009.97
2017-06-04T11:50:37.476Z,1009.98
2017-06-04T11:51:18.029Z,1009.97
2017-06-04T11:51:58.580Z,1009.98
2017-06-04T11:52:39.125Z,1009.94
2017-06-04T11:53:19.668Z,1009.95
2017-06-04T11:54:00.217Z,1009.95
2017-06-04T11:54:40.760Z,1009.86
2017-06-04T11:55:21.306Z,1009.86
2017-06-04T11:56:01.904Z,1009.97
2017-06-04T11:56:42.436Z,1010.01
2017-06-04T11:57:22.981Z,1010.03
2017-06-04T11:58:03.526Z,1009.96
2017-06-04T11:58:44.069Z,1010.04
2017-06-04T11:59:24.623Z,1010.03
2017-06-04T12:00:05.161Z,1010.04
2017-06-04T12:00:45.727Z,1010.01
2017-06-04T12:01:26.271Z,1010
2017-06-04T12:02:06.823Z,1010.04
2017-06-04T12:02:47.370Z,1010.09
2017-06-04T12:03:27.929Z,1010.09
2017-06-04T12:04:08.469Z,1010.01
2017-06-04T12:04:49.008Z,1010.02
2017-06-04T12:05:29.564Z,1010
2017-06-04T12:06:10.112Z,1010.05
2017-06-04T12:06:50.660Z,1009.97
2017-06-04T12:07:31.201Z,1009.99
2017-06-04T12:08:11.740Z,1010.1
2017-06-04T12:08:52.286Z,1010.17
2017-06-04T12:09:32.882Z,1009.96
2017-06-04T12:10:13.449Z,1009.98
2017-06-04T12:10:53.985Z,1009.94
2017-06-04T12:11:34.529Z,1009.97
2017-06-04T12:12:15.078Z,1009.94
2017-06-04T12:12:55.634Z,1009.82
2017-06-04T12:13:36.181Z,1009.84
2017-06-04T12:14:16.716Z,1009.87
2017-06-04T12:14:57.260Z,1009.89
2017-06-04T12:15:37.798Z,1009.92
2017-06-04T12:16:18.338Z,1009.95
2017-06-04T12:16:58.878Z,1009.9
2017-06-04T12:17:39.428Z,1009.9
2017-06-04T12:18:19.965Z,1009.95
2017-06-04T12:19:00.518Z,1009.84
2017-06-04T12:19:41.062Z,1009.89
2017-06-04T12:20:21.604Z,1009.92
2017-06-04T12:21:02.160Z,1009.96
2017-06-04T12:21:42.705Z,1009.87
2017-06-04T12:22:23.248Z,1009.87
2017-06-04T12:23:03.793Z,1009.85
2017-06-04T12:23:44.341Z,1009.88
2017-06-04T12:24:24.897Z,1009.88
2017-06-04T12:25:05.433Z,1009.84
2017-06-04T12:25:45.960Z,1009.86
2017-06-04T12:26:26.505Z,1009.83
2017-06-04T12:27:07.040Z,1009.81
2017-06-04T12:27:47.583Z,1009.79
2017-06-04T12:28:28.140Z,1009.84
2017-06-04T12:29:08.686Z,1009.81
2017-06-04T12:29:49.219Z,1009.81
2017-06-04T12:30:29.762Z,1009.81
2017-06-04T12:31:10.305Z,1009.76
2017-06-04T12:31:50.849Z,1009.72
2017-06-04T12:32:31.402Z,1009.76
2017-06-04T12:33:11.948Z,1009.68
2017-06-04T12:33:52.502Z,1009.76
2017-06-04T12:34:33.046Z,1009.9
2017-06-04T12:35:13.585Z,1009.83
2017-06-04T12:35:54.128Z,1009.82
2017-06-04T12:36:34.668Z,1009.74
2017-06-04T12:37:15.193Z,1009.75
2017-06-04T12:37:55.732Z,1009.75
2017-06-04T12:38:36.284Z,1009.68
2017-06-04T12:39:16.833Z,1009.72
2017-06-04T12:39:57.377Z,1009.71
2017-06-04T12:40:37.932Z,1009.75
2017-06-04T12:41:18.476Z,1009.7
2017-06-04T12:41:59.023Z,1009.71
2017-06-04T12:42:39.576Z,1009.8
2017-06-04T12:43:20.127Z,1009.85
2017-06-04T12:44:00.671Z,1009.7
2017-06-04T12:44:41.222Z,1009.71
2017-06-04T12:45:21.760Z,1009.86
2017-06-04T12:46:02.305Z,1009.71
2017-06-04T12:46:42.846Z,1009.8
2017-06-04T12:47:23.386Z,1009.69
2017-06-04T12:48:03.934Z,1009.73
2017-06-04T12:48:44.471Z,1009.83
2017-06-04T12:49:25.016Z,1009.73
2017-06-04T12:50:05.554Z,1009.77
2017-06-04T12:50:46.093Z,1009.75
2017-06-04T12:51:26.651Z,1009.78
2017-06-04T12:52:07.218Z,1009.73
2017-06-04T12:52:47.751Z,1009.77
2017-06-04T12:53:28.296Z,1009.66
2017-06-04T12:54:08.830Z,1009.66
2017-06-04T12:54:49.377Z,1009.67
2017-06-04T12:55:29.902Z,1009.62
2017-06-04T12:56:10.455Z,1009.61
2017-06-04T12:56:51.005Z,1009.64
2017-06-04T12:57:31.554Z,1009.62
2017-06-04T12:58:12.095Z,1009.68
2017-06-04T12:58:52.627Z,1009.66
2017-06-04T12:59:33.176Z,1009.64
2017-06-04T13:00:13.727Z,1009.62
2017-06-04T13:00:54.275Z,1009.62
2017-06-04T13:01:34.807Z,1009.64
2017-06-04T13:02:15.361Z,1009.61
2017-06-04T13:02:55.912Z,1009.69
2017-06-04T13:03:36.459Z,1009.71
2017-06-04T13:04:17.009Z,1009.73
2017-06-04T13:04:57.560Z,1009.71
2017-06-04T13:05:38.164Z,1009.69
2017-06-04T13:06:18.658Z,1009.66
2017-06-04T13:06:59.205Z,1009.65
2017-06-04T13:07:39.746Z,1009.74
2017-06-04T13:08:20.294Z,1009.64
2017-06-04T13:09:00.843Z,1009.65
2017-06-04T13:09:41.395Z,1009.65
2017-06-04T13:10:21.937Z,1009.64
2017-06-04T13:11:02.478Z,1009.65
2017-06-04T13:11:43.018Z,1009.66
2017-06-04T13:12:23.561Z,1009.65
2017-06-04T13:13:04.112Z,1009.59
2017-06-04T13:13:44.661Z,1009.59
2017-06-04T13:14:25.212Z,1009.61
2017-06-04T13:15:05.756Z,1009.59
2017-06-04T13:15:46.285Z,1009.62
2017-06-04T13:16:26.829Z,1009.6
2017-06-04T13:17:07.363Z,1009.72
2017-06-04T13:17:47.911Z,1009.64
2017-06-04T13:18:28.458Z,1009.69
2017-06-04T13:19:09.003Z,1009.6
2017-06-04T13:19:49.583Z,1009.6
2017-06-04T13:20:30.133Z,1009.64
2017-06-04T13:21:10.679Z,1009.66
2017-06-04T13:21:51.233Z,1009.61
2017-06-04T13:22:31.783Z,1009.62
2017-06-04T13:23:12.322Z,1009.59
2017-06-04T13:23:52.904Z,1009.63
2017-06-04T13:24:33.455Z,1009.65
2017-06-04T13:25:14.015Z,1009.7
2017-06-04T13:25:54.578Z,1009.59
2017-06-04T13:26:35.117Z,1009.61
2017-06-04T13:27:15.659Z,1009.63
2017-06-04T13:27:56.201Z,1009.58
2017-06-04T13:28:36.742Z,1009.55
2017-06-04T13:29:17.289Z,1009.51
2017-06-04T13:29:57.843Z,1009.58
2017-06-04T13:30:38.391Z,1009.65
2017-06-04T13:31:18.926Z,1009.64
2017-06-04T13:31:59.465Z,1009.66
2017-06-04T13:32:40.006Z,1009.62
2017-06-04T13:33:20.538Z,1009.65
2017-06-04T13:34:01.083Z,1009.69
2017-06-04T13:34:41.626Z,1009.66
2017-06-04T13:35:22.160Z,1009.68
2017-06-04T13:36:02.707Z,1009.63
2017-06-04T13:36:43.259Z,1009.61
2017-06-04T13:37:23.803Z,1009.64
2017-06-04T13:38:04.336Z,1009.65
2017-06-04T13:38:44.901Z,1009.63
2017-06-04T13:39:25.443Z,1009.67
2017-06-04T13:40:05.982Z,1009.71
2017-06-04T13:40:46.527Z,1009.68
2017-06-04T13:41:27.080Z,1009.71
2017-06-04T13:42:07.631Z,1009.65
2017-06-04T13:42:48.170Z,1009.68
2017-06-04T13:43:28.715Z,1009.64
2017-06-04T13:44:09.253Z,1009.63
2017-06-04T13:44:49.797Z,1009.63
2017-06-04T13:45:30.357Z,1009.66
2017-06-04T13:46:10.899Z,1009.6
2017-06-04T13:46:51.430Z,1009.74
2017-06-04T13:47:31.966Z,1009.7
2017-06-04T13:48:12.549Z,1009.68
2017-06-04T13:48:53.099Z,1009.68
2017-06-04T13:49:33.637Z,1009.71
2017-06-04T13:50:14.188Z,1009.88
2017-06-04T13:50:54.727Z,1009.7
2017-06-04T13:51:35.287Z,1009.67
2017-06-04T13:52:15.808Z,1009.64
2017-06-04T13:52:56.350Z,1009.67
2017-06-04T13:53:36.891Z,1009.63
2017-06-04T13:54:17.437Z,1009.66
2017-06-04T13:54:57.974Z,1009.65
2017-06-04T13:55:38.510Z,1009.62
2017-06-04T13:56:19.042Z,1009.65
2017-06-04T13:56:59.593Z,1009.64
2017-06-04T13:57:40.145Z,1009.67
2017-06-04T13:58:20.679Z,1009.7
2017-06-04T13:59:01.227Z,1009.67
2017-06-04T13:59:41.777Z,1009.66
2017-06-04T14:00:22.333Z,1009.74
2017-06-04T14:01:02.880Z,1009.69
2017-06-04T14:01:43.431Z,1009.67
2017-06-04T14:02:23.977Z,1009.69
2017-06-04T14:03:04.528Z,1009.7
2017-06-04T14:03:45.073Z,1009.65
2017-06-04T14:04:25.618Z,1009.68
2017-06-04T14:05:06.173Z,1009.76
2017-06-04T14:05:46.698Z,1009.77
2017-06-04T14:06:27.248Z,1009.71
2017-06-04T14:07:07.797Z,1009.78
2017-06-04T14:07:48.326Z,1009.81
2017-06-04T14:08:28.871Z,1009.78
2017-06-04T14:09:09.410Z,1009.82
2017-06-04T14:09:49.943Z,1009.91
2017-06-04T14:10:30.479Z,1009.88
2017-06-04T14:11:11.032Z,1009.89
2017-06-04T14:11:51.578Z,1009.84
2017-06-04T14:12:32.150Z,1009.85
2017-06-04T14:13:12.691Z,1009.88
2017-06-04T14:13:53.235Z,1009.9
2017-06-04T14:14:33.778Z,1009.91
2017-06-04T14:15:14.323Z,1009.91
2017-06-04T14:15:54.885Z,1009.87
2017-06-04T14:16:35.413Z,1009.88
2017-06-04T14:17:15.956Z,1009.87
2017-06-04T14:17:56.539Z,1009.88
2017-06-04T14:18:37.086Z,1009.9
2017-06-04T14:19:17.632Z,1009.93
2017-06-04T14:19:58.182Z,1009.94
2017-06-04T14:20:38.728Z,1009.94
2017-06-04T14:21:19.247Z,1009.9
2017-06-04T14:22:02.739Z,1009.95
2017-06-04T14:22:43.292Z,1009.92
2017-06-04T14:23:23.843Z,1009.96
2017-06-04T14:24:04.385Z,1009.94
2017-06-04T14:24:44.921Z,1009.95
2017-06-04T14:25:25.463Z,1009.99
2017-06-04T14:26:06.001Z,1009.91
2017-06-04T14:26:46.583Z,1009.91
2017-06-04T14:27:27.126Z,1009.93
2017-06-04T14:28:07.701Z,1009.94
2017-06-04T14:28:48.234Z,1009.94
2017-06-04T14:29:28.762Z,1009.98
2017-06-04T14:30:09.306Z,1009.95
2017-06-04T14:30:49.982Z,1009.98
2017-06-04T14:31:30.580Z,1010.03
2017-06-04T14:32:11.107Z,1009.96
2017-06-04T14:32:51.968Z,1009.97
2017-06-04T14:33:32.657Z,1010.05
2017-06-04T14:34:13.170Z,1010.01
2017-06-04T14:34:53.749Z,1010.03
2017-06-04T14:35:34.276Z,1010.07
2017-06-04T14:36:14.802Z,1010.09
2017-06-04T14:36:55.403Z,1010.02
2017-06-04T14:37:35.963Z,1010.01
2017-06-04T14:38:16.658Z,1010.08
2017-06-04T14:38:57.201Z,1010.09
2017-06-04T14:39:37.843Z,1010.11
2017-06-04T14:40:18.444Z,1010.12
2017-06-04T14:40:59.006Z,1010.09
2017-06-04T14:41:39.672Z,1010.19
2017-06-04T14:42:20.261Z,1010.22
2017-06-04T14:43:00.823Z,1010.18
2017-06-04T14:43:41.362Z,1010.19
2017-06-04T14:44:22.139Z,1010.23
2017-06-04T14:45:02.692Z,1010.21
2017-06-04T14:45:43.281Z,1010.23
2017-06-04T14:46:23.787Z,1010.22
2017-06-04T14:47:04.379Z,1010.21
2017-06-04T14:47:45.003Z,1010.23
2017-06-04T14:48:25.574Z,1010.25
2017-06-04T14:49:06.133Z,1010.27
2017-06-04T14:49:46.832Z,1010.26
2017-06-04T14:50:27.402Z,1010.28
2017-06-04T14:51:08.021Z,1010.24
2017-06-04T14:51:48.555Z,1010.29
2017-06-04T14:52:29.084Z,1010.3
2017-06-04T14:53:09.647Z,1010.28
2017-06-04T14:53:50.256Z,1010.28
2017-06-04T14:54:30.850Z,1010.34
2017-06-04T14:55:11.375Z,1010.31
2017-06-04T14:55:51.933Z,1010.33
2017-06-04T14:56:32.534Z,1010.28
2017-06-04T14:57:13.208Z,1010.32
2017-06-04T14:57:53.989Z,1010.32
2017-06-04T14:58:34.462Z,1010.32
2017-06-04T14:59:15.003Z,1010.33
2017-06-04T14:59:55.558Z,1010.32
2017-06-04T15:00:36.224Z,1010.35
2017-06-04T15:01:16.756Z,1010.34
2017-06-04T15:01:57.292Z,1010.34
2017-06-04T15:02:38.121Z,1010.39
